sensor_id;sensor_type;location;lat;lon;timestamp;temperature;humidity
21092;DHT22;10704;42.678;23.288;2023-07-20T00:01:59;22.50;99.90
21092;DHT22;10704;42.678;23.288;2023-07-20T00:04:24;22.40;99.90
21092;DHT22;10704;42.678;23.288;2023-07-20T00:06:50;22.40;99.90
21092;DHT22;10704;42.678;23.288;2023-07-20T00:09:16;22.40;99.90
21092;DHT22;10704;42.678;23.288;2023-07-20T00:11:49;22.50;99.90
21092;DHT22;10704;42.678;23.288;2023-07-20T00:14:16;22.50;99.90
21092;DHT22;10704;42.678;23.288;2023-07-20T00:16:42;22.50;99.90
21092;DHT22;10704;42.678;23.288;2023-07-20T00:19:08;22.50;99.90
21092;DHT22;10704;42.678;23.288;2023-07-20T00:21:36;22.60;99.90
21092;DHT22;10704;42.678;23.288;2023-07-20T00:24:02;22.70;99.90
21092;DHT22;10704;42.678;23.288;2023-07-20T00:26:28;22.70;99.90
21092;DHT22;10704;42.678;23.288;2023-07-20T00:28:54;22.70;99.90
21092;DHT22;10704;42.678;23.288;2023-07-20T00:31:19;22.60;99.90
21092;DHT22;10704;42.678;23.288;2023-07-20T00:33:46;22.60;99.90
21092;DHT22;10704;42.678;23.288;2023-07-20T00:36:12;22.60;99.90
21092;DHT22;10704;42.678;23.288;2023-07-20T00:38:38;22.60;99.90
21092;DHT22;10704;42.678;23.288;2023-07-20T00:41:05;22.60;99.90
21092;DHT22;10704;42.678;23.288;2023-07-20T00:43:31;22.70;99.90
21092;DHT22;10704;42.678;23.288;2023-07-20T00:45:57;22.80;99.90
21092;DHT22;10704;42.678;23.288;2023-07-20T00:48:23;22.80;99.90
21092;DHT22;10704;42.678;23.288;2023-07-20T00:50:49;22.70;99.90
21092;DHT22;10704;42.678;23.288;2023-07-20T00:53:16;22.70;99.90
21092;DHT22;10704;42.678;23.288;2023-07-20T00:55:42;22.60;99.90
21092;DHT22;10704;42.678;23.288;2023-07-20T00:58:08;22.60;99.90
21092;DHT22;10704;42.678;23.288;2023-07-20T01:00:34;22.60;99.90
21092;DHT22;10704;42.678;23.288;2023-07-20T01:03:00;22.50;99.90
21092;DHT22;10704;42.678;23.288;2023-07-20T01:05:38;22.40;99.90
21092;DHT22;10704;42.678;23.288;2023-07-20T01:08:21;22.10;99.90
21092;DHT22;10704;42.678;23.288;2023-07-20T01:10:58;22.00;99.90
21092;DHT22;10704;42.678;23.288;2023-07-20T01:13:25;22.00;99.90
21092;DHT22;10704;42.678;23.288;2023-07-20T01:16:01;22.00;99.90
21092;DHT22;10704;42.678;23.288;2023-07-20T01:18:27;21.90;99.90
21092;DHT22;10704;42.678;23.288;2023-07-20T01:21:01;21.80;99.90
21092;DHT22;10704;42.678;23.288;2023-07-20T01:29:36;21.80;99.90
21092;DHT22;10704;42.678;23.288;2023-07-20T01:32:08;21.60;99.90
21092;DHT22;10704;42.678;23.288;2023-07-20T01:34:36;21.40;99.90
21092;DHT22;10704;42.678;23.288;2023-07-20T01:37:03;21.40;99.90
21092;DHT22;10704;42.678;23.288;2023-07-20T01:39:31;21.40;99.90
21092;DHT22;10704;42.678;23.288;2023-07-20T01:41:58;21.30;99.90
21092;DHT22;10704;42.678;23.288;2023-07-20T01:44:25;21.30;99.90
21092;DHT22;10704;42.678;23.288;2023-07-20T01:46:52;21.30;99.90
21092;DHT22;10704;42.678;23.288;2023-07-20T01:49:18;21.30;99.90
21092;DHT22;10704;42.678;23.288;2023-07-20T01:51:43;21.20;99.90
21092;DHT22;10704;42.678;23.288;2023-07-20T01:54:09;21.10;99.90
21092;DHT22;10704;42.678;23.288;2023-07-20T01:56:35;21.10;99.90
21092;DHT22;10704;42.678;23.288;2023-07-20T01:59:01;21.10;99.90
21092;DHT22;10704;42.678;23.288;2023-07-20T02:01:27;21.00;99.90
21092;DHT22;10704;42.678;23.288;2023-07-20T02:03:54;21.00;99.90
21092;DHT22;10704;42.678;23.288;2023-07-20T02:06:21;21.10;99.90
21092;DHT22;10704;42.678;23.288;2023-07-20T02:08:48;21.10;99.90
21092;DHT22;10704;42.678;23.288;2023-07-20T02:11:14;21.10;99.90
21092;DHT22;10704;42.678;23.288;2023-07-20T02:13:39;21.10;99.90
21092;DHT22;10704;42.678;23.288;2023-07-20T02:16:05;21.00;99.90
21092;DHT22;10704;42.678;23.288;2023-07-20T02:18:31;20.90;99.90
21092;DHT22;10704;42.678;23.288;2023-07-20T02:20:57;21.00;99.90
21092;DHT22;10704;42.678;23.288;2023-07-20T02:23:23;20.90;99.90
21092;DHT22;10704;42.678;23.288;2023-07-20T02:25:49;20.80;99.90
21092;DHT22;10704;42.678;23.288;2023-07-20T02:28:15;20.80;99.90
21092;DHT22;10704;42.678;23.288;2023-07-20T02:30:40;20.80;99.90
21092;DHT22;10704;42.678;23.288;2023-07-20T02:33:07;20.80;99.90
21092;DHT22;10704;42.678;23.288;2023-07-20T02:35:33;20.70;99.90
21092;DHT22;10704;42.678;23.288;2023-07-20T02:37:59;20.80;99.90
21092;DHT22;10704;42.678;23.288;2023-07-20T02:40:25;20.70;99.90
21092;DHT22;10704;42.678;23.288;2023-07-20T02:42:51;20.60;99.90
21092;DHT22;10704;42.678;23.288;2023-07-20T02:45:17;20.50;99.90
21092;DHT22;10704;42.678;23.288;2023-07-20T02:47:43;20.40;99.90
21092;DHT22;10704;42.678;23.288;2023-07-20T02:50:09;20.50;99.90
21092;DHT22;10704;42.678;23.288;2023-07-20T02:52:34;20.60;99.90
21092;DHT22;10704;42.678;23.288;2023-07-20T02:55:00;20.60;99.90
21092;DHT22;10704;42.678;23.288;2023-07-20T02:57:27;20.60;99.90
21092;DHT22;10704;42.678;23.288;2023-07-20T02:59:52;20.50;99.90
21092;DHT22;10704;42.678;23.288;2023-07-20T03:02:19;20.50;99.90
21092;DHT22;10704;42.678;23.288;2023-07-20T03:04:44;20.50;99.90
21092;DHT22;10704;42.678;23.288;2023-07-20T03:07:10;20.50;99.90
21092;DHT22;10704;42.678;23.288;2023-07-20T03:09:36;20.50;99.90
21092;DHT22;10704;42.678;23.288;2023-07-20T03:12:02;20.50;99.90
21092;DHT22;10704;42.678;23.288;2023-07-20T03:14:30;20.50;99.90
21092;DHT22;10704;42.678;23.288;2023-07-20T03:16:57;20.50;99.90
21092;DHT22;10704;42.678;23.288;2023-07-20T03:19:22;20.40;99.90
21092;DHT22;10704;42.678;23.288;2023-07-20T03:21:49;20.40;99.90
21092;DHT22;10704;42.678;23.288;2023-07-20T03:24:15;20.40;99.90
21092;DHT22;10704;42.678;23.288;2023-07-20T03:26:40;20.50;99.90
21092;DHT22;10704;42.678;23.288;2023-07-20T03:29:07;20.30;99.90
21092;DHT22;10704;42.678;23.288;2023-07-20T03:31:34;20.30;99.90
21092;DHT22;10704;42.678;23.288;2023-07-20T03:33:59;20.30;99.90
21092;DHT22;10704;42.678;23.288;2023-07-20T03:36:25;20.30;99.90
21092;DHT22;10704;42.678;23.288;2023-07-20T03:38:51;20.30;99.90
21092;DHT22;10704;42.678;23.288;2023-07-20T03:41:17;20.20;99.90
21092;DHT22;10704;42.678;23.288;2023-07-20T03:43:45;20.30;99.90
21092;DHT22;10704;42.678;23.288;2023-07-20T03:46:11;20.40;99.90
21092;DHT22;10704;42.678;23.288;2023-07-20T03:48:38;20.50;99.90
21092;DHT22;10704;42.678;23.288;2023-07-20T03:51:04;20.50;99.90
21092;DHT22;10704;42.678;23.288;2023-07-20T03:53:29;20.60;99.90
21092;DHT22;10704;42.678;23.288;2023-07-20T03:55:55;20.70;99.90
21092;DHT22;10704;42.678;23.288;2023-07-20T03:58:21;20.70;99.90
21092;DHT22;10704;42.678;23.288;2023-07-20T04:00:49;20.70;99.90
21092;DHT22;10704;42.678;23.288;2023-07-20T04:03:16;20.80;99.90
21092;DHT22;10704;42.678;23.288;2023-07-20T04:05:42;20.80;99.90
21092;DHT22;10704;42.678;23.288;2023-07-20T04:08:08;21.00;99.90
21092;DHT22;10704;42.678;23.288;2023-07-20T04:10:35;21.20;99.90
21092;DHT22;10704;42.678;23.288;2023-07-20T04:13:01;21.30;99.90
21092;DHT22;10704;42.678;23.288;2023-07-20T04:15:26;21.40;99.90
21092;DHT22;10704;42.678;23.288;2023-07-20T04:17:52;21.60;99.90
21092;DHT22;10704;42.678;23.288;2023-07-20T04:20:18;21.60;99.90
21092;DHT22;10704;42.678;23.288;2023-07-20T04:22:44;21.80;99.90
21092;DHT22;10704;42.678;23.288;2023-07-20T04:25:13;21.80;99.90
21092;DHT22;10704;42.678;23.288;2023-07-20T04:27:38;21.70;99.90
21092;DHT22;10704;42.678;23.288;2023-07-20T04:30:07;21.80;99.90
21092;DHT22;10704;42.678;23.288;2023-07-20T04:32:34;21.90;99.90
21092;DHT22;10704;42.678;23.288;2023-07-20T04:35:05;21.90;99.90
21092;DHT22;10704;42.678;23.288;2023-07-20T04:37:31;21.80;99.90
21092;DHT22;10704;42.678;23.288;2023-07-20T04:39:58;21.90;99.90
21092;DHT22;10704;42.678;23.288;2023-07-20T04:42:24;21.90;99.90
21092;DHT22;10704;42.678;23.288;2023-07-20T04:44:50;21.90;99.90
21092;DHT22;10704;42.678;23.288;2023-07-20T04:47:16;22.00;99.90
21092;DHT22;10704;42.678;23.288;2023-07-20T04:49:42;22.20;99.90
21092;DHT22;10704;42.678;23.288;2023-07-20T04:52:08;22.40;99.90
21092;DHT22;10704;42.678;23.288;2023-07-20T04:54:34;22.50;99.90
21092;DHT22;10704;42.678;23.288;2023-07-20T04:56:59;22.80;99.90
21092;DHT22;10704;42.678;23.288;2023-07-20T04:59:26;23.00;99.90
21092;DHT22;10704;42.678;23.288;2023-07-20T05:01:51;22.80;99.90
21092;DHT22;10704;42.678;23.288;2023-07-20T05:04:18;22.60;99.90
21092;DHT22;10704;42.678;23.288;2023-07-20T05:06:44;22.60;99.90
21092;DHT22;10704;42.678;23.288;2023-07-20T05:09:10;22.70;99.90
21092;DHT22;10704;42.678;23.288;2023-07-20T05:11:36;22.90;99.90
21092;DHT22;10704;42.678;23.288;2023-07-20T05:14:02;23.10;99.90
21092;DHT22;10704;42.678;23.288;2023-07-20T05:16:29;23.20;99.90
21092;DHT22;10704;42.678;23.288;2023-07-20T05:18:59;23.30;99.90
21092;DHT22;10704;42.678;23.288;2023-07-20T05:21:25;23.30;99.90
21092;DHT22;10704;42.678;23.288;2023-07-20T05:23:52;23.30;99.90
21092;DHT22;10704;42.678;23.288;2023-07-20T05:26:17;23.30;99.90
21092;DHT22;10704;42.678;23.288;2023-07-20T05:28:43;23.40;99.90
21092;DHT22;10704;42.678;23.288;2023-07-20T05:31:09;23.40;99.90
21092;DHT22;10704;42.678;23.288;2023-07-20T05:33:35;23.40;99.90
21092;DHT22;10704;42.678;23.288;2023-07-20T05:36:00;23.50;99.90
21092;DHT22;10704;42.678;23.288;2023-07-20T05:38:26;23.50;99.90
21092;DHT22;10704;42.678;23.288;2023-07-20T05:40:59;23.80;99.90
21092;DHT22;10704;42.678;23.288;2023-07-20T05:43:26;23.90;99.90
21092;DHT22;10704;42.678;23.288;2023-07-20T05:45:52;24.10;99.90
21092;DHT22;10704;42.678;23.288;2023-07-20T05:48:18;24.30;99.90
21092;DHT22;10704;42.678;23.288;2023-07-20T05:50:43;24.30;99.90
21092;DHT22;10704;42.678;23.288;2023-07-20T05:53:09;24.50;99.90
21092;DHT22;10704;42.678;23.288;2023-07-20T05:55:35;24.60;99.90
21092;DHT22;10704;42.678;23.288;2023-07-20T05:58:01;24.70;99.90
21092;DHT22;10704;42.678;23.288;2023-07-20T06:00:27;24.70;99.90
21092;DHT22;10704;42.678;23.288;2023-07-20T06:02:53;24.80;99.90
21092;DHT22;10704;42.678;23.288;2023-07-20T06:05:22;24.90;99.90
21092;DHT22;10704;42.678;23.288;2023-07-20T06:07:50;24.90;99.90
21092;DHT22;10704;42.678;23.288;2023-07-20T06:10:20;24.80;99.90
21092;DHT22;10704;42.678;23.288;2023-07-20T06:12:46;24.80;99.90
21092;DHT22;10704;42.678;23.288;2023-07-20T06:15:32;24.70;99.90
21092;DHT22;10704;42.678;23.288;2023-07-20T06:17:58;24.90;99.90
21092;DHT22;10704;42.678;23.288;2023-07-20T06:20:24;25.00;99.90
21092;DHT22;10704;42.678;23.288;2023-07-20T06:22:50;24.90;99.90
21092;DHT22;10704;42.678;23.288;2023-07-20T06:25:16;25.00;99.90
21092;DHT22;10704;42.678;23.288;2023-07-20T06:27:43;25.20;99.90
21092;DHT22;10704;42.678;23.288;2023-07-20T06:30:09;25.30;99.90
21092;DHT22;10704;42.678;23.288;2023-07-20T06:32:36;25.50;99.90
21092;DHT22;10704;42.678;23.288;2023-07-20T06:35:02;25.50;99.90
21092;DHT22;10704;42.678;23.288;2023-07-20T06:37:27;25.60;99.90
21092;DHT22;10704;42.678;23.288;2023-07-20T06:39:53;25.50;99.90
21092;DHT22;10704;42.678;23.288;2023-07-20T06:42:19;25.50;99.90
21092;DHT22;10704;42.678;23.288;2023-07-20T06:44:45;25.70;99.90
21092;DHT22;10704;42.678;23.288;2023-07-20T06:47:11;25.70;99.90
21092;DHT22;10704;42.678;23.288;2023-07-20T06:49:37;25.60;99.90
21092;DHT22;10704;42.678;23.288;2023-07-20T06:52:03;26.00;99.90
21092;DHT22;10704;42.678;23.288;2023-07-20T06:54:29;26.20;99.90
21092;DHT22;10704;42.678;23.288;2023-07-20T06:56:55;26.40;99.90
21092;DHT22;10704;42.678;23.288;2023-07-20T06:59:21;26.80;99.90
21092;DHT22;10704;42.678;23.288;2023-07-20T07:01:47;27.20;99.90
21092;DHT22;10704;42.678;23.288;2023-07-20T07:04:12;27.30;99.90
21092;DHT22;10704;42.678;23.288;2023-07-20T07:06:38;27.60;99.90
21092;DHT22;10704;42.678;23.288;2023-07-20T07:09:04;27.80;99.90
21092;DHT22;10704;42.678;23.288;2023-07-20T07:11:30;27.60;99.90
21092;DHT22;10704;42.678;23.288;2023-07-20T07:13:56;27.40;99.90
21092;DHT22;10704;42.678;23.288;2023-07-20T07:16:22;27.20;99.90
21092;DHT22;10704;42.678;23.288;2023-07-20T07:18:50;26.90;99.90
21092;DHT22;10704;42.678;23.288;2023-07-20T07:21:16;26.90;99.90
21092;DHT22;10704;42.678;23.288;2023-07-20T07:23:43;26.70;99.90
21092;DHT22;10704;42.678;23.288;2023-07-20T07:26:09;26.80;99.90
21092;DHT22;10704;42.678;23.288;2023-07-20T07:28:36;26.90;99.90
21092;DHT22;10704;42.678;23.288;2023-07-20T07:31:05;27.20;99.90
21092;DHT22;10704;42.678;23.288;2023-07-20T07:33:31;27.30;99.90
21092;DHT22;10704;42.678;23.288;2023-07-20T07:35:57;27.30;99.90
21092;DHT22;10704;42.678;23.288;2023-07-20T07:38:24;27.70;99.90
21092;DHT22;10704;42.678;23.288;2023-07-20T07:40:50;27.60;99.90
21092;DHT22;10704;42.678;23.288;2023-07-20T07:43:16;27.90;99.90
21092;DHT22;10704;42.678;23.288;2023-07-20T07:45:41;28.20;99.90
21092;DHT22;10704;42.678;23.288;2023-07-20T07:48:08;28.20;99.90
21092;DHT22;10704;42.678;23.288;2023-07-20T07:50:36;28.60;99.90
21092;DHT22;10704;42.678;23.288;2023-07-20T07:53:03;28.70;99.90
21092;DHT22;10704;42.678;23.288;2023-07-20T07:55:28;29.00;99.90
21092;DHT22;10704;42.678;23.288;2023-07-20T07:57:54;29.20;99.90
21092;DHT22;10704;42.678;23.288;2023-07-20T08:00:20;29.00;99.90
21092;DHT22;10704;42.678;23.288;2023-07-20T08:02:46;28.90;99.90
21092;DHT22;10704;42.678;23.288;2023-07-20T08:05:14;28.80;99.90
21092;DHT22;10704;42.678;23.288;2023-07-20T08:07:40;29.20;99.90
21092;DHT22;10704;42.678;23.288;2023-07-20T08:10:06;29.30;99.80
21092;DHT22;10704;42.678;23.288;2023-07-20T08:12:32;29.10;99.60
21092;DHT22;10704;42.678;23.288;2023-07-20T08:14:58;28.90;99.90
21092;DHT22;10704;42.678;23.288;2023-07-20T08:17:24;28.60;99.90
21092;DHT22;10704;42.678;23.288;2023-07-20T08:19:50;28.30;99.90
21092;DHT22;10704;42.678;23.288;2023-07-20T08:22:16;28.00;99.90
21092;DHT22;10704;42.678;23.288;2023-07-20T08:24:42;27.40;99.90
21092;DHT22;10704;42.678;23.288;2023-07-20T08:27:09;27.30;99.90
21092;DHT22;10704;42.678;23.288;2023-07-20T08:29:35;27.50;99.90
21092;DHT22;10704;42.678;23.288;2023-07-20T08:32:01;27.80;99.20
21092;DHT22;10704;42.678;23.288;2023-07-20T08:34:28;27.80;98.30
21092;DHT22;10704;42.678;23.288;2023-07-20T08:36:53;27.90;98.50
21092;DHT22;10704;42.678;23.288;2023-07-20T08:39:19;28.00;96.40
21092;DHT22;10704;42.678;23.288;2023-07-20T08:41:48;28.00;95.20
21092;DHT22;10704;42.678;23.288;2023-07-20T08:44:16;28.00;94.80
21092;DHT22;10704;42.678;23.288;2023-07-20T08:46:42;27.90;95.30
21092;DHT22;10704;42.678;23.288;2023-07-20T08:49:09;28.00;95.20
21092;DHT22;10704;42.678;23.288;2023-07-20T08:51:37;28.00;94.40
21092;DHT22;10704;42.678;23.288;2023-07-20T08:54:04;28.10;94.70
21092;DHT22;10704;42.678;23.288;2023-07-20T08:56:31;28.60;93.80
21092;DHT22;10704;42.678;23.288;2023-07-20T08:58:59;28.80;92.60
21092;DHT22;10704;42.678;23.288;2023-07-20T09:01:25;29.10;92.10
21092;DHT22;10704;42.678;23.288;2023-07-20T09:03:52;29.40;90.60
21092;DHT22;10704;42.678;23.288;2023-07-20T09:06:18;29.50;90.00
21092;DHT22;10704;42.678;23.288;2023-07-20T09:08:44;29.50;89.40
21092;DHT22;10704;42.678;23.288;2023-07-20T09:11:11;29.40;89.10
21092;DHT22;10704;42.678;23.288;2023-07-20T09:13:38;29.20;88.70
21092;DHT22;10704;42.678;23.288;2023-07-20T09:16:04;28.80;90.00
21092;DHT22;10704;42.678;23.288;2023-07-20T09:18:32;29.20;89.40
21092;DHT22;10704;42.678;23.288;2023-07-20T09:21:01;29.70;88.40
21092;DHT22;10704;42.678;23.288;2023-07-20T09:23:38;30.20;86.80
21092;DHT22;10704;42.678;23.288;2023-07-20T09:26:13;30.70;85.00
21092;DHT22;10704;42.678;23.288;2023-07-20T09:28:44;30.60;82.80
21092;DHT22;10704;42.678;23.288;2023-07-20T09:31:20;29.80;83.80
21092;DHT22;10704;42.678;23.288;2023-07-20T09:33:47;30.60;80.60
21092;DHT22;10704;42.678;23.288;2023-07-20T09:36:14;29.70;80.40
21092;DHT22;10704;42.678;23.288;2023-07-20T09:38:42;30.10;79.50
21092;DHT22;10704;42.678;23.288;2023-07-20T09:41:13;30.30;79.00
21092;DHT22;10704;42.678;23.288;2023-07-20T09:43:39;30.80;76.80
21092;DHT22;10704;42.678;23.288;2023-07-20T09:46:05;31.40;76.50
21092;DHT22;10704;42.678;23.288;2023-07-20T09:48:31;32.10;76.30
21092;DHT22;10704;42.678;23.288;2023-07-20T09:50:57;31.60;77.00
21092;DHT22;10704;42.678;23.288;2023-07-20T09:53:25;31.30;77.00
21092;DHT22;10704;42.678;23.288;2023-07-20T09:55:52;31.70;74.60
21092;DHT22;10704;42.678;23.288;2023-07-20T09:58:18;32.20;72.20
21092;DHT22;10704;42.678;23.288;2023-07-20T10:00:45;31.20;71.40
21092;DHT22;10704;42.678;23.288;2023-07-20T10:03:21;30.70;72.10
21092;DHT22;10704;42.678;23.288;2023-07-20T10:06:06;30.20;72.00
21092;DHT22;10704;42.678;23.288;2023-07-20T10:08:38;29.70;72.10
21092;DHT22;10704;42.678;23.288;2023-07-20T10:11:07;29.40;73.20
21092;DHT22;10704;42.678;23.288;2023-07-20T10:13:37;29.30;74.80
21092;DHT22;10704;42.678;23.288;2023-07-20T10:16:11;29.60;74.80
21092;DHT22;10704;42.678;23.288;2023-07-20T10:19:03;30.00;74.10
21092;DHT22;10704;42.678;23.288;2023-07-20T10:21:35;30.10;73.00
21092;DHT22;10704;42.678;23.288;2023-07-20T10:24:01;29.50;73.60
21092;DHT22;10704;42.678;23.288;2023-07-20T10:26:28;29.60;74.80
21092;DHT22;10704;42.678;23.288;2023-07-20T10:28:54;29.60;74.40
21092;DHT22;10704;42.678;23.288;2023-07-20T10:31:22;30.10;73.30
21092;DHT22;10704;42.678;23.288;2023-07-20T10:33:49;29.90;72.10
21092;DHT22;10704;42.678;23.288;2023-07-20T10:36:16;30.00;72.60
21092;DHT22;10704;42.678;23.288;2023-07-20T10:38:55;30.30;71.90
21092;DHT22;10704;42.678;23.288;2023-07-20T10:41:29;29.80;72.90
21092;DHT22;10704;42.678;23.288;2023-07-20T10:44:05;29.20;74.00
21092;DHT22;10704;42.678;23.288;2023-07-20T10:49:08;29.10;73.40
21092;DHT22;10704;42.678;23.288;2023-07-20T10:51:42;29.10;78.20
21092;DHT22;10704;42.678;23.288;2023-07-20T10:56:59;29.20;75.20
21092;DHT22;10704;42.678;23.288;2023-07-20T10:59:47;29.60;74.90
21092;DHT22;10704;42.678;23.288;2023-07-20T11:02:12;30.20;74.50
21092;DHT22;10704;42.678;23.288;2023-07-20T11:04:39;30.40;73.30
21092;DHT22;10704;42.678;23.288;2023-07-20T11:07:06;30.60;73.50
21092;DHT22;10704;42.678;23.288;2023-07-20T11:09:38;31.00;73.00
21092;DHT22;10704;42.678;23.288;2023-07-20T11:12:12;31.60;71.50
21092;DHT22;10704;42.678;23.288;2023-07-20T11:14:56;32.50;70.20
21092;DHT22;10704;42.678;23.288;2023-07-20T11:17:29;32.90;69.10
21092;DHT22;10704;42.678;23.288;2023-07-20T11:19:59;33.20;68.40
21092;DHT22;10704;42.678;23.288;2023-07-20T11:22:31;33.70;67.30
21092;DHT22;10704;42.678;23.288;2023-07-20T11:24:57;33.60;67.70
21092;DHT22;10704;42.678;23.288;2023-07-20T11:27:24;33.50;67.40
21092;DHT22;10704;42.678;23.288;2023-07-20T11:29:50;33.60;67.70
21092;DHT22;10704;42.678;23.288;2023-07-20T11:32:23;34.00;66.90
21092;DHT22;10704;42.678;23.288;2023-07-20T11:34:49;34.50;65.80
21092;DHT22;10704;42.678;23.288;2023-07-20T11:37:17;34.40;66.10
21092;DHT22;10704;42.678;23.288;2023-07-20T11:39:43;34.70;65.00
21092;DHT22;10704;42.678;23.288;2023-07-20T11:42:10;34.50;65.50
21092;DHT22;10704;42.678;23.288;2023-07-20T11:44:36;34.60;65.20
21092;DHT22;10704;42.678;23.288;2023-07-20T11:47:11;34.70;64.20
21092;DHT22;10704;42.678;23.288;2023-07-20T11:49:42;34.20;62.90
21092;DHT22;10704;42.678;23.288;2023-07-20T11:52:09;34.00;63.80
21092;DHT22;10704;42.678;23.288;2023-07-20T11:54:38;34.00;65.10
21092;DHT22;10704;42.678;23.288;2023-07-20T11:57:05;35.00;63.80
21092;DHT22;10704;42.678;23.288;2023-07-20T11:59:32;35.60;62.60
21092;DHT22;10704;42.678;23.288;2023-07-20T12:02:05;35.30;60.60
21092;DHT22;10704;42.678;23.288;2023-07-20T12:04:32;35.50;61.50
21092;DHT22;10704;42.678;23.288;2023-07-20T12:06:59;35.20;60.20
21092;DHT22;10704;42.678;23.288;2023-07-20T12:09:25;35.00;59.80
21092;DHT22;10704;42.678;23.288;2023-07-20T12:11:51;34.80;59.40
21092;DHT22;10704;42.678;23.288;2023-07-20T12:14:16;35.10;58.90
21092;DHT22;10704;42.678;23.288;2023-07-20T12:16:43;35.20;59.80
21092;DHT22;10704;42.678;23.288;2023-07-20T12:19:11;35.50;59.30
21092;DHT22;10704;42.678;23.288;2023-07-20T12:21:41;35.50;59.20
21092;DHT22;10704;42.678;23.288;2023-07-20T12:24:08;35.70;58.40
21092;DHT22;10704;42.678;23.288;2023-07-20T12:26:35;35.60;58.30
21092;DHT22;10704;42.678;23.288;2023-07-20T12:29:02;35.40;57.20
21092;DHT22;10704;42.678;23.288;2023-07-20T12:31:36;35.80;56.30
21092;DHT22;10704;42.678;23.288;2023-07-20T12:34:02;34.90;55.40
21092;DHT22;10704;42.678;23.288;2023-07-20T12:36:28;34.70;56.70
21092;DHT22;10704;42.678;23.288;2023-07-20T12:38:54;35.10;53.20
21092;DHT22;10704;42.678;23.288;2023-07-20T12:41:20;35.20;50.70
21092;DHT22;10704;42.678;23.288;2023-07-20T12:43:46;34.70;50.60
21092;DHT22;10704;42.678;23.288;2023-07-20T12:46:13;34.50;50.70
21092;DHT22;10704;42.678;23.288;2023-07-20T12:48:39;33.90;50.90
21092;DHT22;10704;42.678;23.288;2023-07-20T12:51:08;33.90;52.50
21092;DHT22;10704;42.678;23.288;2023-07-20T12:53:34;33.70;53.10
21092;DHT22;10704;42.678;23.288;2023-07-20T12:56:00;33.70;53.80
21092;DHT22;10704;42.678;23.288;2023-07-20T12:58:26;34.50;53.90
21092;DHT22;10704;42.678;23.288;2023-07-20T13:00:52;35.00;53.60
21092;DHT22;10704;42.678;23.288;2023-07-20T13:03:18;35.60;53.10
21092;DHT22;10704;42.678;23.288;2023-07-20T13:05:45;35.70;53.10
21092;DHT22;10704;42.678;23.288;2023-07-20T13:08:11;35.90;53.30
21092;DHT22;10704;42.678;23.288;2023-07-20T13:10:37;36.00;53.40
21092;DHT22;10704;42.678;23.288;2023-07-20T13:13:06;36.00;52.90
21092;DHT22;10704;42.678;23.288;2023-07-20T13:15:41;35.60;53.40
21092;DHT22;10704;42.678;23.288;2023-07-20T13:18:07;35.50;54.10
21092;DHT22;10704;42.678;23.288;2023-07-20T13:20:33;35.50;54.40
21092;DHT22;10704;42.678;23.288;2023-07-20T13:22:59;35.40;54.30
21092;DHT22;10704;42.678;23.288;2023-07-20T13:25:25;35.50;54.40
21092;DHT22;10704;42.678;23.288;2023-07-20T13:27:51;35.20;54.80
21092;DHT22;10704;42.678;23.288;2023-07-20T13:30:17;35.10;54.90
21092;DHT22;10704;42.678;23.288;2023-07-20T13:32:44;35.10;54.00
21092;DHT22;10704;42.678;23.288;2023-07-20T13:35:10;35.50;53.30
21092;DHT22;10704;42.678;23.288;2023-07-20T13:37:36;35.30;53.60
21092;DHT22;10704;42.678;23.288;2023-07-20T13:40:02;35.30;54.00
21092;DHT22;10704;42.678;23.288;2023-07-20T13:42:31;35.10;54.10
21092;DHT22;10704;42.678;23.288;2023-07-20T13:44:57;34.70;55.50
21092;DHT22;10704;42.678;23.288;2023-07-20T13:47:23;34.60;55.90
21092;DHT22;10704;42.678;23.288;2023-07-20T13:49:49;34.70;56.30
21092;DHT22;10704;42.678;23.288;2023-07-20T13:52:15;34.60;56.40
21092;DHT22;10704;42.678;23.288;2023-07-20T13:54:41;34.70;56.40
21092;DHT22;10704;42.678;23.288;2023-07-20T13:57:07;34.70;56.50
21092;DHT22;10704;42.678;23.288;2023-07-20T13:59:32;34.60;56.60
21092;DHT22;10704;42.678;23.288;2023-07-20T14:01:58;34.80;56.00
21092;DHT22;10704;42.678;23.288;2023-07-20T14:04:24;34.70;55.20
21092;DHT22;10704;42.678;23.288;2023-07-20T14:06:51;34.60;55.80
21092;DHT22;10704;42.678;23.288;2023-07-20T14:09:17;34.50;55.20
21092;DHT22;10704;42.678;23.288;2023-07-20T14:11:43;34.20;54.60
21092;DHT22;10704;42.678;23.288;2023-07-20T14:14:09;33.90;54.00
21092;DHT22;10704;42.678;23.288;2023-07-20T14:16:35;33.60;53.70
21092;DHT22;10704;42.678;23.288;2023-07-20T14:19:01;33.80;54.40
21092;DHT22;10704;42.678;23.288;2023-07-20T14:21:27;33.90;54.50
21092;DHT22;10704;42.678;23.288;2023-07-20T14:23:54;34.10;54.30
21092;DHT22;10704;42.678;23.288;2023-07-20T14:26:21;34.00;54.50
21092;DHT22;10704;42.678;23.288;2023-07-20T14:28:47;33.90;55.10
21092;DHT22;10704;42.678;23.288;2023-07-20T14:31:12;34.40;54.40
21092;DHT22;10704;42.678;23.288;2023-07-20T14:33:40;34.30;54.70
21092;DHT22;10704;42.678;23.288;2023-07-20T14:36:10;34.40;55.10
21092;DHT22;10704;42.678;23.288;2023-07-20T14:38:36;34.20;55.70
21092;DHT22;10704;42.678;23.288;2023-07-20T14:41:03;34.10;56.10
21092;DHT22;10704;42.678;23.288;2023-07-20T14:43:31;33.90;56.60
21092;DHT22;10704;42.678;23.288;2023-07-20T14:45:57;33.90;56.90
21092;DHT22;10704;42.678;23.288;2023-07-20T14:48:23;33.80;57.30
21092;DHT22;10704;42.678;23.288;2023-07-20T14:50:49;33.60;57.40
21092;DHT22;10704;42.678;23.288;2023-07-20T14:53:15;33.60;57.70
21092;DHT22;10704;42.678;23.288;2023-07-20T14:55:42;33.70;57.90
21092;DHT22;10704;42.678;23.288;2023-07-20T14:58:08;34.30;57.10
21092;DHT22;10704;42.678;23.288;2023-07-20T15:00:34;34.30;58.40
21092;DHT22;10704;42.678;23.288;2023-07-20T15:03:00;33.90;58.50
21092;DHT22;10704;42.678;23.288;2023-07-20T15:05:27;33.80;58.70
21092;DHT22;10704;42.678;23.288;2023-07-20T15:07:53;33.80;58.90
21092;DHT22;10704;42.678;23.288;2023-07-20T15:10:19;33.70;59.00
21092;DHT22;10704;42.678;23.288;2023-07-20T15:12:45;33.70;59.20
21092;DHT22;10704;42.678;23.288;2023-07-20T15:15:13;33.40;59.60
21092;DHT22;10704;42.678;23.288;2023-07-20T15:17:41;33.90;59.20
21092;DHT22;10704;42.678;23.288;2023-07-20T15:20:09;33.90;59.10
21092;DHT22;10704;42.678;23.288;2023-07-20T15:22:35;33.60;59.70
21092;DHT22;10704;42.678;23.288;2023-07-20T15:25:05;33.60;60.20
21092;DHT22;10704;42.678;23.288;2023-07-20T15:27:32;33.50;59.60